Time,TemperatureF,DewpointF,PressureIn,WindDirection,WindDirectionDegrees,WindSpeedMPH,WindSpeedGustMPH,Humidity,HourlyPrecipIn,Conditions,Clouds,dailyrainin,SoftwareType,DateUTC
2013-12-21 00:22:00,17.0,14.0,-100.00,SSW,193,0.0,3.0,86,0.00,,,0.00,,2013-12-21 07:22:00,
2013-12-21 00:42:00,17.0,13.0,-100.00,SSW,210,0.0,4.0,85,0.00,,,0.00,,2013-12-21 07:42:00,
2013-12-21 00:53:00,17.0,13.0,-100.00,SW,218,1.0,4.0,85,0.00,,,0.00,,2013-12-21 07:53:00,
2013-12-21 01:11:00,17.0,14.0,-100.00,SW,218,0.0,2.0,86,0.00,,,0.00,,2013-12-21 08:11:00,
2013-12-21 01:21:00,17.0,13.0,-100.00,SW,224,0.0,5.0,85,0.00,,,0.00,,2013-12-21 08:21:00,
2013-12-21 01:42:00,17.0,13.0,-100.00,SW,224,0.0,6.0,84,0.00,,,0.00,,2013-12-21 08:42:00,
2013-12-21 01:52:00,17.0,13.0,-100.00,SW,225,1.0,3.0,84,0.00,,,0.00,,2013-12-21 08:52:00,
2013-12-21 02:22:00,17.0,14.0,-100.00,SW,236,0.0,3.0,86,0.00,,,0.00,,2013-12-21 09:22:00,
2013-12-21 02:54:00,17.0,14.0,-100.00,West,263,0.0,0.0,86,0.00,,,0.00,,2013-12-21 09:54:00,
2013-12-21 03:23:00,17.0,14.0,-100.00,West,263,0.0,2.0,87,0.00,,,0.00,,2013-12-21 10:23:00,
2013-12-21 03:53:00,17.0,14.0,-100.00,WSW,250,0.0,3.0,87,0.00,,,0.00,,2013-12-21 10:53:00,
2013-12-21 04:12:00,17.0,14.0,-100.00,WSW,247,1.0,6.0,87,0.00,,,0.00,,2013-12-21 11:12:00,
2013-12-21 04:22:00,17.0,14.0,-100.00,WSW,247,0.0,2.0,87,0.00,,,0.00,,2013-12-21 11:22:00,
2013-12-21 04:42:00,17.0,14.0,-100.00,WSW,247,0.0,2.0,87,0.00,,,0.00,,2013-12-21 11:42:00,
2013-12-21 04:53:00,17.0,14.0,-100.00,WSW,247,0.0,2.0,87,0.00,,,0.00,,2013-12-21 11:53:00,
2013-12-21 05:12:00,17.0,14.0,-100.00,WSW,247,0.0,3.0,87,0.00,,,0.00,,2013-12-21 12:12:00,
2013-12-21 05:21:00,17.0,14.0,-100.00,WSW,247,0.0,3.0,86,0.00,,,0.00,,2013-12-21 12:21:00,
2013-12-21 05:42:00,17.0,14.0,-100.00,WSW,247,0.0,1.0,86,0.00,,,0.00,,2013-12-21 12:42:00,
2013-12-21 05:52:00,17.0,14.0,-100.00,WSW,247,0.0,0.0,86,0.00,,,0.00,,2013-12-21 12:52:00,
2013-12-21 06:21:00,17.0,13.0,-100.00,WSW,247,0.0,1.0,85,0.00,,,0.00,,2013-12-21 13:21:00,
2013-12-21 06:42:00,17.0,14.0,-100.00,WNW,301,0.0,1.0,86,0.00,,,0.00,,2013-12-21 13:42:00,
2013-12-21 06:52:00,18.0,14.0,-100.00,SSE,150,0.0,1.0,85,0.00,,,0.00,,2013-12-21 13:52:00,
2013-12-21 07:11:00,18.0,14.0,-100.00,SSE,150,0.0,1.0,84,0.00,,,0.00,,2013-12-21 14:11:00,
2013-12-21 07:22:00,18.0,14.0,-100.00,West,265,1.0,7.0,84,0.00,,,0.00,,2013-12-21 14:22:00,
2013-12-21 07:42:00,18.0,14.0,-100.00,SW,232,1.0,4.0,85,0.00,,,0.00,,2013-12-21 14:42:00,
2013-12-21 07:53:00,18.0,15.0,-100.00,SW,224,0.0,5.0,86,0.00,,,0.00,,2013-12-21 14:53:00,
2013-12-21 08:21:00,18.0,15.0,-100.00,SW,234,0.0,3.0,87,0.00,,,0.00,,2013-12-21 15:21:00,
2013-12-21 08:43:00,18.0,15.0,-100.00,SW,224,0.0,3.0,87,0.00,,,0.00,,2013-12-21 15:43:00,
2013-12-21 08:53:00,18.0,15.0,-100.00,WSW,251,0.0,4.0,87,0.00,,,0.00,,2013-12-21 15:53:00,
2013-12-21 09:22:00,19.0,16.0,-100.00,NW,317,0.0,2.0,86,0.00,,,0.00,,2013-12-21 16:22:00,
2013-12-21 09:53:00,18.0,14.0,-100.00,WNW,287,0.0,3.0,85,0.00,,,0.00,,2013-12-21 16:53:00,
2013-12-21 10:12:00,19.0,16.0,-100.00,NNE,12,3.0,5.0,86,0.00,,,0.00,,2013-12-21 17:12:00,
2013-12-21 10:22:00,19.0,15.0,-100.00,North,354,3.0,5.0,85,0.00,,,0.00,,2013-12-21 17:22:00,
2013-12-21 10:43:00,19.0,15.0,-100.00,NW,312,0.0,3.0,85,0.00,,,0.00,,2013-12-21 17:43:00,
2013-12-21 10:53:00,20.0,16.0,-100.00,NW,312,1.0,2.0,85,0.00,,,0.00,,2013-12-21 17:53:00,
2013-12-21 11:12:00,21.0,17.0,-100.00,NW,312,0.0,2.0,83,0.00,,,0.00,,2013-12-21 18:12:00,
2013-12-21 11:22:00,23.0,18.0,-100.00,SSW,210,0.0,7.0,81,0.00,,,0.00,,2013-12-21 18:22:00,
2013-12-21 11:42:00,25.0,19.0,-100.00,South,181,1.0,5.0,76,0.00,,,0.00,,2013-12-21 18:42:00,
2013-12-21 11:52:00,24.0,17.0,-100.00,ESE,104,2.0,3.0,74,0.00,,,0.00,,2013-12-21 18:52:00,
2013-12-21 12:21:00,22.0,17.0,-100.00,NW,323,1.0,4.0,81,0.02,,,0.02,,2013-12-21 19:21:00,
2013-12-21 12:42:00,22.0,17.0,-100.00,NNE,29,1.0,4.0,81,0.02,,,0.02,,2013-12-21 19:42:00,
2013-12-21 12:52:00,22.0,17.0,-100.00,NW,312,2.0,4.0,80,0.02,,,0.02,,2013-12-21 19:52:00,
2013-12-21 13:12:00,23.0,18.0,-100.00,NW,305,2.0,4.0,80,0.01,,,0.02,,2013-12-21 20:12:00,
2013-12-21 13:22:00,23.0,17.0,-100.00,NW,310,1.0,4.0,79,0.00,,,0.02,,2013-12-21 20:22:00,
2013-12-21 13:52:00,24.0,18.0,-100.00,North,350,1.0,4.0,78,0.00,,,0.02,,2013-12-21 20:52:00,
2013-12-21 14:22:00,24.0,19.0,-100.00,NW,325,2.0,4.0,80,0.00,,,0.02,,2013-12-21 21:22:00,
2013-12-21 14:53:00,24.0,19.0,-100.00,NNW,347,0.0,5.0,81,0.00,,,0.02,,2013-12-21 21:53:00,
2013-12-21 15:22:00,25.0,20.0,-100.00,NW,314,0.0,2.0,82,0.00,,,0.02,,2013-12-21 22:22:00,
2013-12-21 15:53:00,25.0,20.0,-100.00,NW,314,0.0,0.0,81,0.00,,,0.02,,2013-12-21 22:53:00,
2013-12-21 16:22:00,25.0,20.0,-100.00,WNW,298,0.0,2.0,81,0.00,,,0.02,,2013-12-21 23:22:00,
2013-12-21 16:43:00,25.0,20.0,-100.00,NW,324,2.0,4.0,80,0.00,,,0.02,,2013-12-21 23:43:00,
2013-12-21 16:53:00,25.0,21.0,-100.00,NW,324,2.0,4.0,83,0.00,,,0.02,,2013-12-21 23:53:00,
2013-12-21 17:11:00,25.0,20.0,-100.00,NW,323,0.0,1.0,82,0.00,,,0.02,,2013-12-22 00:11:00,
2013-12-21 17:21:00,24.0,20.0,-100.00,NW,323,0.0,0.0,83,0.00,,,0.02,,2013-12-22 00:21:00,
2013-12-21 17:42:00,25.0,19.0,-100.00,SSE,160,1.0,6.0,76,0.00,,,0.02,,2013-12-22 00:42:00,
2013-12-21 17:52:00,25.0,18.0,-100.00,WNW,285,0.0,1.0,75,0.00,,,0.02,,2013-12-22 00:52:00,
2013-12-21 18:22:00,23.0,16.0,-100.00,NW,308,0.0,2.0,75,0.00,,,0.02,,2013-12-22 01:22:00,
2013-12-21 18:52:00,22.0,15.0,-100.00,SW,215,0.0,1.0,74,0.00,,,0.02,,2013-12-22 01:52:00,
2013-12-21 19:11:00,21.0,15.0,-100.00,West,274,0.0,1.0,76,0.00,,,0.02,,2013-12-22 02:11:00,
2013-12-21 19:22:00,21.0,15.0,-100.00,SSE,158,0.0,3.0,76,0.00,,,0.02,,2013-12-22 02:22:00,
2013-12-21 19:52:00,22.0,15.0,-100.00,SSW,206,0.0,2.0,75,0.00,,,0.02,,2013-12-22 02:52:00,
2013-12-21 20:11:00,22.0,15.0,-100.00,WNW,283,0.0,6.0,73,0.00,,,0.02,,2013-12-22 03:11:00,
2013-12-21 20:22:00,22.0,15.0,-100.00,WSW,251,0.0,2.0,75,0.00,,,0.02,,2013-12-22 03:22:00,
2013-12-21 20:43:00,22.0,15.0,-100.00,South,184,0.0,2.0,75,0.00,,,0.02,,2013-12-22 03:43:00,
2013-12-21 20:54:00,22.0,15.0,-100.00,NNE,27,0.0,3.0,75,0.00,,,0.02,,2013-12-22 03:54:00,
2013-12-21 21:02:00,-999.0,-99.9,-100.00,SSW,208,0.0,1.0,-999,0.00,,,0.02,,2013-12-22 04:02:00,
2013-12-21 21:23:00,21.0,15.0,-100.00,South,185,0.0,2.0,77,0.00,,,0.02,,2013-12-22 04:23:00,
2013-12-21 21:53:00,20.0,14.0,-100.00,SW,216,0.0,2.0,77,0.00,,,0.02,,2013-12-22 04:53:00,
2013-12-21 22:22:00,22.0,15.0,-100.00,WSW,256,1.0,4.0,74,0.00,,,0.02,,2013-12-22 05:22:00,
2013-12-21 22:43:00,21.0,14.0,-100.00,North,8,3.0,7.0,74,0.00,,,0.02,,2013-12-22 05:43:00,
2013-12-21 22:53:00,19.0,13.0,-100.00,ESE,123,3.0,5.0,77,0.00,,,0.02,,2013-12-22 05:53:00,
2013-12-21 23:22:00,17.0,12.0,-100.00,WNW,284,0.0,1.0,79,0.00,,,0.02,,2013-12-22 06:22:00,
2013-12-21 23:52:00,15.0,11.0,-100.00,NW,308,0.0,1.0,82,0.00,,,0.02,,2013-12-22 06:52:00,